Time;durP1;ratioP1;P1;durP2;ratioP2;P2;SDS_P1;SDS_P2;PMS_P1;PMS_P2;Temp;Humidity;BMP_temperature;BMP_pressure;BME280_temperature;BME280_humidity;BME280_pressure;Samples;Min_cycle;Max_cycle;Signal;HPM_P1;HPM_P2
2020/12/10 00:01:02;;;;;;;66.43;21.60;;;;;;;3.70;80.00;99876.41;8635389;33;20468;-75
2020/12/10 00:06:05;;;;;;;56.63;20.87;;;;;;;3.71;79.90;99876.34;8665889;33;20183;-74
2020/12/10 00:11:09;;;;;;;71.00;24.70;;;;;;;3.71;79.64;99865.75;8663345;33;20417;-75
2020/12/10 00:16:12;;;;;;;72.43;24.67;;;;;;;3.66;79.45;99859.84;8664340;33;20605;-75
2020/12/10 00:21:20;;;;;;;70.33;24.83;;;;;;;3.66;79.67;99856.34;8664411;33;20455;-75
2020/12/10 00:26:24;;;;;;;70.35;23.85;;;;;;;3.66;79.28;99846.63;8639376;33;20573;-75
2020/12/10 00:31:26;;;;;;;75.67;23.90;;;;;;;3.65;79.13;99849.31;8662847;33;20399;-75
2020/12/10 00:36:44;;;;;;;72.60;24.20;;;;;;;3.63;79.28;99854.69;8661329;33;20630;-75
2020/12/10 00:41:53;;;;;;;66.70;21.80;;;;;;;3.62;79.25;99845.06;8658912;33;20262;-75
2020/12/10 00:46:57;;;;;;;70.83;22.97;;;;;;;3.64;79.47;99831.78;8632561;33;20568;-75
2020/12/10 00:52:00;;;;;;;72.90;24.07;;;;;;;3.59;79.14;99839.06;8631795;33;20654;-75
2020/12/10 00:57:08;;;;;;;72.90;24.37;;;;;;;3.56;79.34;99848.84;8633483;33;20403;-75
2020/12/10 01:02:11;;;;;;;78.63;21.67;;;;;;;3.54;79.30;99836.66;8652196;33;20762;-74
2020/12/10 01:07:14;;;;;;;78.67;26.13;;;;;;;3.46;79.69;99837.00;8652216;33;20400;-74
2020/12/10 01:12:18;;;;;;;70.27;22.63;;;;;;;3.48;79.95;99832.50;8651678;33;21023;-74
2020/12/10 01:17:20;;;;;;;76.20;23.97;;;;;;;3.45;79.39;99832.63;8651410;33;20480;-74
2020/12/10 01:22:22;;;;;;;71.70;23.60;;;;;;;3.47;79.68;99845.78;8649564;33;20181;-75
2020/12/10 01:27:25;;;;;;;65.07;23.20;;;;;;;3.47;79.49;99824.66;8649169;33;20426;-75
2020/12/10 01:32:28;;;;;;;66.50;22.90;;;;;;;3.47;79.37;99830.78;8650020;33;21195;-74
2020/12/10 01:37:30;;;;;;;70.63;23.47;;;;;;;3.41;79.57;99823.16;8624254;33;20391;-75
2020/12/10 01:42:36;;;;;;;82.20;24.10;;;;;;;3.45;79.12;99815.94;8650831;33;20151;-74
2020/12/10 01:47:39;;;;;;;58.73;21.27;;;;;;;3.45;79.03;99814.13;8650523;33;20399;-75
2020/12/10 01:52:41;;;;;;;61.73;21.47;;;;;;;3.41;78.87;99809.94;8648488;33;20138;-75
2020/12/10 01:57:45;;;;;;;66.87;20.93;;;;;;;3.41;78.84;99807.31;8578184;33;20371;-75
2020/12/10 02:02:54;;;;;;;59.93;20.37;;;;;;;3.46;78.74;99807.09;8573001;33;20998;-75
2020/12/10 02:07:57;;;;;;;54.87;18.73;;;;;;;3.51;78.17;99818.28;8574483;33;21185;-75
2020/12/10 02:13:00;;;;;;;53.40;20.07;;;;;;;3.52;78.32;99806.81;8575919;33;20440;-75
2020/12/10 02:18:04;;;;;;;53.43;18.23;;;;;;;3.53;78.25;99790.00;8576613;33;20859;-75
2020/12/10 02:23:09;;;;;;;65.30;21.20;;;;;;;3.52;78.33;99783.88;8585578;33;20420;-75
2020/12/10 02:28:14;;;;;;;54.17;19.17;;;;;;;3.53;77.90;99769.75;8582649;33;21066;-75
2020/12/10 02:33:35;;;;;;;59.87;20.63;;;;;;;3.51;77.79;99761.06;8569799;33;20422;-75
2020/12/10 02:38:38;;;;;;;52.95;17.48;;;;;;;3.52;78.26;99770.69;8571528;33;20463;-75
2020/12/10 02:43:41;;;;;;;48.77;17.43;;;;;;;3.54;78.31;99774.09;8579709;33;20142;-75
2020/12/10 02:48:44;;;;;;;52.17;20.00;;;;;;;3.59;78.36;99757.16;8609941;33;20150;-74
2020/12/10 02:53:47;;;;;;;55.07;19.43;;;;;;;3.61;77.94;99765.88;8645355;33;20491;-74
2020/12/10 02:58:49;;;;;;;64.07;19.43;;;;;;;3.64;77.95;99760.44;8649015;33;20646;-73
2020/12/10 03:03:51;;;;;;;55.43;18.50;;;;;;;3.64;77.91;99760.44;8652251;33;20636;-75
2020/12/10 03:08:55;;;;;;;59.57;20.53;;;;;;;3.66;77.82;99756.81;8654655;33;20466;-75
2020/12/10 03:13:57;;;;;;;60.20;18.77;;;;;;;3.66;77.88;99767.38;8657300;33;20402;-75
2020/12/10 03:18:59;;;;;;;59.97;19.90;;;;;;;3.67;77.68;99762.94;8654844;33;20127;-74
2020/12/10 03:24:02;;;;;;;59.83;19.67;;;;;;;3.62;77.96;99752.63;8652788;33;20666;-74
2020/12/10 03:29:07;;;;;;;57.97;20.60;;;;;;;3.54;78.05;99741.56;8649637;33;20420;-74
2020/12/10 03:34:10;;;;;;;66.43;20.47;;;;;;;3.54;78.39;99741.56;8649413;33;20494;-75
2020/12/10 03:39:13;;;;;;;60.77;22.10;;;;;;;3.57;78.33;99725.56;8654313;33;20420;-74
2020/12/10 03:44:16;;;;;;;68.83;19.53;;;;;;;3.55;78.31;99714.22;8654033;33;21958;-74
2020/12/10 03:49:19;;;;;;;62.83;19.50;;;;;;;3.58;78.56;99721.13;8654490;33;21410;-74
2020/12/10 03:54:22;;;;;;;66.00;21.47;;;;;;;3.61;78.02;99718.34;8653397;33;20985;-75
2020/12/10 03:59:25;;;;;;;64.57;19.20;;;;;;;3.54;78.23;99708.06;8654736;33;20190;-74
2020/12/10 04:04:27;;;;;;;68.07;21.33;;;;;;;3.52;78.33;99702.00;8661576;33;20513;-74
2020/12/10 04:09:30;;;;;;;63.60;19.57;;;;;;;3.54;78.47;99701.94;8664874;33;20142;-75
2020/12/10 04:14:33;;;;;;;66.87;21.70;;;;;;;3.58;78.40;99707.94;8661391;33;20457;-75
2020/12/10 04:19:35;;;;;;;58.40;19.90;;;;;;;3.58;78.39;99700.84;8659544;33;20420;-75
2020/12/10 04:24:38;;;;;;;66.10;21.73;;;;;;;3.53;78.41;99700.22;8660743;33;20225;-75
2020/12/10 04:29:41;;;;;;;62.63;19.83;;;;;;;3.54;78.53;99694.88;8658635;33;20954;-75
2020/12/10 04:34:43;;;;;;;68.40;21.50;;;;;;;3.54;78.90;99700.16;8658010;33;21121;-75
2020/12/10 04:39:46;;;;;;;56.17;19.60;;;;;;;3.53;78.58;99709.00;8657808;33;20143;-74
2020/12/10 04:44:49;;;;;;;58.13;19.80;;;;;;;3.53;78.51;99693.16;8657962;33;20186;-75
2020/12/10 04:49:52;;;;;;;55.67;19.23;;;;;;;3.58;78.37;99692.94;8657813;33;20452;-75
2020/12/10 04:54:56;;;;;;;58.77;20.00;;;;;;;3.60;78.27;99696.34;8659273;33;20973;-75
2020/12/10 04:59:59;;;;;;;58.67;19.93;;;;;;;3.67;78.67;99707.47;8663228;33;20418;-75
2020/12/10 05:05:20;;;;;;;68.40;20.60;;;;;;;3.68;78.55;99711.84;8656636;33;20898;-76
2020/12/10 05:10:25;;;;;;;63.10;19.50;;;;;;;3.69;78.37;99716.19;8628559;33;20162;-76
2020/12/10 05:15:32;;;;;;;58.97;18.67;;;;;;;3.61;78.37;99711.25;8654301;32;20480;-75
2020/12/10 05:20:43;;;;;;;58.00;20.13;;;;;;;3.61;78.36;99705.13;8653805;32;20414;-74
2020/12/10 05:25:51;;;;;;;62.00;20.20;;;;;;;3.64;78.63;99699.69;8655138;33;20196;-75
2020/12/10 05:31:03;;;;;;;57.53;20.37;;;;;;;3.65;78.41;99701.38;8656805;33;20461;-75
2020/12/10 05:36:12;;;;;;;65.67;20.53;;;;;;;3.65;78.50;99701.38;8656474;33;20395;-74
2020/12/10 05:41:19;;;;;;;65.57;20.53;;;;;;;3.67;78.24;99697.75;8655593;32;20410;-72
2020/12/10 05:46:23;;;;;;;68.53;21.97;;;;;;;3.69;78.28;99700.31;8654998;33;20631;-74
2020/12/10 05:51:28;;;;;;;56.27;19.97;;;;;;;3.72;78.27;99702.81;8653274;33;20186;-74
2020/12/10 05:56:34;;;;;;;66.83;20.43;;;;;;;3.73;78.80;99693.94;8653868;33;20487;-75
2020/12/10 06:01:37;;;;;;;60.63;20.00;;;;;;;3.72;78.74;99694.88;8655953;33;20420;-74
2020/12/10 06:06:39;;;;;;;72.17;21.30;;;;;;;3.74;78.62;99698.31;8651643;33;20883;-74
2020/12/10 06:11:42;;;;;;;66.70;21.27;;;;;;;3.76;78.75;99715.81;8650621;33;20174;-74
2020/12/10 06:16:45;;;;;;;69.60;21.37;;;;;;;3.78;78.21;99702.50;8651553;33;20404;-73
2020/12/10 06:21:47;;;;;;;70.47;22.00;;;;;;;3.82;78.66;99705.88;8653297;33;20940;-74
2020/12/10 06:26:51;;;;;;;63.23;20.37;;;;;;;3.83;78.55;99713.69;8653568;32;20331;-74
2020/12/10 06:32:11;;;;;;;64.70;20.30;;;;;;;3.82;78.53;99705.88;8655389;33;20178;-74
2020/12/10 06:37:25;;;;;;;55.27;20.50;;;;;;;3.83;78.59;99711.06;8655004;33;20178;-74
2020/12/10 06:47:55;;;;;;;63.23;20.50;;;;;;;3.82;78.92;99703.22;8776052;32;20507;-75
2020/12/10 06:53:16;;;;;;;62.33;21.20;;;;;;;3.79;79.25;99709.50;8682376;33;20156;-75
2020/12/10 06:58:19;;;;;;;64.50;22.57;;;;;;;3.76;79.27;99701.75;8853291;32;20158;-72
2020/12/10 07:03:30;;;;;;;75.77;23.57;;;;;;;3.75;79.92;99698.22;8859109;33;20289;-74
2020/12/10 07:08:33;;;;;;;75.10;21.40;;;;;;;3.70;80.02;99702.03;8859389;33;20434;-73
2020/12/10 07:13:35;;;;;;;79.30;24.37;;;;;;;3.64;80.38;99704.97;8858136;33;20170;-75
2020/12/10 07:18:38;;;;;;;74.83;23.17;;;;;;;3.62;80.79;99705.06;8859144;33;20150;-74
2020/12/10 07:23:40;;;;;;;62.07;21.40;;;;;;;3.62;81.47;99704.19;8857865;33;20185;-73
2020/12/10 07:28:43;;;;;;;76.40;22.97;;;;;;;3.67;81.21;99688.97;8832916;33;20185;-74
2020/12/10 07:33:46;;;;;;;67.07;21.93;;;;;;;3.66;81.48;99688.13;8857993;33;20252;-72
2020/12/10 07:38:48;;;;;;;67.50;20.90;;;;;;;3.70;81.61;99688.81;8857763;33;20146;-74
2020/12/10 07:43:52;;;;;;;71.10;22.73;;;;;;;3.67;81.72;99692.47;8857779;33;20419;-74
2020/12/10 07:48:56;;;;;;;62.23;21.97;;;;;;;3.70;82.15;99694.09;8857838;33;20600;-72
2020/12/10 07:54:03;;;;;;;76.07;21.53;;;;;;;3.72;82.08;99701.03;8832515;33;20683;-75
2020/12/10 07:59:10;;;;;;;60.13;21.23;;;;;;;3.73;82.04;99699.22;8838234;33;20184;-74
2020/12/10 08:04:18;;;;;;;64.83;22.00;;;;;;;3.83;82.43;99712.84;8837978;33;20193;-74
2020/12/10 08:09:21;;;;;;;69.03;21.03;;;;;;;3.79;81.86;99706.88;8837082;33;20258;-74
2020/12/10 08:14:26;;;;;;;60.07;20.57;;;;;;;3.85;82.18;99711.00;8837241;33;20186;-74
2020/12/10 08:19:31;;;;;;;66.50;19.27;;;;;;;3.91;81.74;99706.25;8837318;33;20674;-72
2020/12/10 08:24:37;;;;;;;62.67;19.30;;;;;;;3.95;81.68;99701.66;8837404;33;20632;-75
2020/12/10 08:29:40;;;;;;;52.47;18.60;;;;;;;4.07;81.57;99689.63;8837637;33;20346;-74
2020/12/10 08:34:43;;;;;;;69.97;19.83;;;;;;;4.21;81.42;99693.25;8834146;33;20520;-74
2020/12/10 08:39:46;;;;;;;52.60;19.10;;;;;;;4.36;81.51;99688.97;8836631;33;20445;-74
2020/12/10 08:44:51;;;;;;;56.50;20.87;;;;;;;4.37;80.22;99697.75;8837122;33;20597;-74
2020/12/10 08:50:26;;;;;;;52.27;19.03;;;;;;;4.32;80.12;99691.84;8836434;33;20631;-74
2020/12/10 08:55:36;;;;;;;24.67;9.83;;;;;;;4.41;80.85;99696.66;8836221;33;20432;-73
2020/12/10 09:00:38;;;;;;;69.37;20.57;;;;;;;4.79;80.38;99693.75;8835926;33;21289;-74
2020/12/10 09:05:42;;;;;;;66.73;21.87;;;;;;;5.10;79.40;99700.88;8836791;33;20445;-74
2020/12/10 09:10:44;;;;;;;57.65;19.10;;;;;;;5.11;78.87;99703.44;8836475;33;20227;-74
2020/12/10 09:15:47;;;;;;;44.70;16.60;;;;;;;5.28;78.30;99704.31;8837386;33;20682;-74
2020/12/10 09:20:51;;;;;;;51.00;19.98;;;;;;;5.38;77.57;99704.66;8836967;33;20217;-74
2020/12/10 09:25:54;;;;;;;48.45;17.30;;;;;;;5.26;77.42;99706.19;8835749;33;20187;-75
2020/12/10 09:30:56;;;;;;;47.08;16.88;;;;;;;5.15;77.69;99703.28;8835038;33;20200;-74
2020/12/10 09:36:00;;;;;;;50.10;17.98;;;;;;;5.13;77.66;99698.09;8835308;33;20186;-74
2020/12/10 09:41:03;;;;;;;48.72;18.30;;;;;;;5.13;77.60;99690.16;8810407;33;20638;-74
2020/12/10 09:46:09;;;;;;;49.87;16.30;;;;;;;5.04;77.34;99693.28;8835414;33;20239;-74
2020/12/10 09:51:13;;;;;;;49.42;16.45;;;;;;;5.07;77.52;99688.69;8835000;33;20181;-74
2020/12/10 10:01:45;;;;;;;53.70;17.02;;;;;;;5.06;77.68;99684.31;8813199;33;20181;-73
2020/12/10 10:06:48;;;;;;;41.78;17.13;;;;;;;5.09;77.37;99673.56;8835762;33;20235;-74
2020/12/10 10:11:52;;;;;;;43.72;17.08;;;;;;;5.17;77.12;99670.47;8834341;33;20462;-74
2020/12/10 10:16:54;;;;;;;46.72;17.63;;;;;;;5.25;76.63;99659.47;8834733;33;20551;-74
2020/12/10 10:21:58;;;;;;;48.45;17.52;;;;;;;5.17;76.02;99662.53;8833850;33;20138;-74
2020/12/10 10:27:00;;;;;;;52.03;17.73;;;;;;;5.26;76.46;99661.16;8834282;33;20182;-74
2020/12/10 10:32:03;;;;;;;44.72;17.45;;;;;;;5.26;75.35;99648.75;8834281;33;21972;-75
2020/12/10 10:37:06;;;;;;;48.47;17.73;;;;;;;5.34;75.99;99657.13;8834258;33;20182;-72
2020/12/10 10:42:08;;;;;;;40.55;16.88;;;;;;;5.29;75.58;99650.38;8808378;33;20214;-73
2020/12/10 10:47:11;;;;;;;49.58;17.42;;;;;;;5.21;75.25;99650.84;8833591;33;20471;-73
2020/12/10 10:52:14;;;;;;;52.45;17.30;;;;;;;5.21;75.35;99644.66;8833241;33;20746;-73
2020/12/10 10:57:16;;;;;;;47.35;17.92;;;;;;;5.22;75.44;99631.34;8833332;33;20198;-73
2020/12/10 11:02:19;;;;;;;52.60;18.52;;;;;;;5.34;75.66;99628.00;8833311;33;20442;-73
2020/12/10 11:07:22;;;;;;;49.27;19.07;;;;;;;5.38;75.34;99630.50;8833609;33;20194;-73
2020/12/10 11:12:26;;;;;;;45.63;17.17;;;;;;;5.43;75.49;99628.41;8833602;33;20772;-72
2020/12/10 11:17:28;;;;;;;48.53;19.17;;;;;;;5.58;75.08;99622.22;8833514;33;20289;-73
2020/12/10 11:22:33;;;;;;;45.67;17.08;;;;;;;5.63;74.84;99619.31;8831544;33;20138;-72
2020/12/10 11:27:36;;;;;;;23.23;11.00;;;;;;;5.70;75.39;99607.41;8807279;33;20427;-74
2020/12/10 11:32:41;;;;;;;54.92;19.05;;;;;;;6.05;74.50;99610.63;8835338;33;20306;-74
2020/12/10 11:37:45;;;;;;;50.33;20.50;;;;;;;6.10;73.06;99611.22;8836906;33;20147;-73
2020/12/10 11:42:49;;;;;;;46.72;18.00;;;;;;;5.98;73.14;99609.31;8836889;33;20236;-73
2020/12/10 11:47:51;;;;;;;60.85;24.30;;;;;;;5.81;73.38;99607.63;8836849;33;20234;-74
2020/12/10 11:52:54;;;;;;;45.22;16.75;;;;;;;5.73;73.67;99610.75;8836586;33;20700;-74
2020/12/10 11:57:56;;;;;;;44.33;17.80;;;;;;;5.59;73.98;99610.69;8837068;33;21365;-73
2020/12/10 12:02:59;;;;;;;54.10;19.60;;;;;;;5.59;74.47;99608.03;8835978;33;20193;-74
2020/12/10 12:08:02;;;;;;;54.42;18.95;;;;;;;5.55;74.78;99601.22;8836910;33;21480;-74
2020/12/10 12:13:05;;;;;;;46.40;18.98;;;;;;;5.62;74.98;99607.84;8839166;33;20188;-72
2020/12/10 12:18:07;;;;;;;50.05;18.27;;;;;;;5.61;74.88;99598.19;8839339;33;20182;-74
2020/12/10 12:23:10;;;;;;;37.10;15.07;;;;;;;5.60;74.94;99596.50;8835904;33;20220;-74
2020/12/10 12:28:12;;;;;;;49.88;17.60;;;;;;;5.68;74.60;99602.22;8836520;33;20713;-75
2020/12/10 12:33:15;;;;;;;41.92;16.58;;;;;;;5.74;74.08;99599.19;8835884;33;20231;-74
2020/12/10 12:38:19;;;;;;;40.73;16.67;;;;;;;5.80;73.94;99587.38;8835781;33;21111;-73
2020/12/10 12:43:21;;;;;;;42.63;17.55;;;;;;;5.87;73.58;99593.13;8835091;33;20131;-73
2020/12/10 12:48:23;;;;;;;42.88;16.55;;;;;;;5.99;73.51;99584.50;8835264;33;20184;-74
2020/12/10 12:53:26;;;;;;;48.72;16.85;;;;;;;6.05;73.74;99584.13;8835067;33;20181;-72
2020/12/10 12:58:29;;;;;;;43.15;16.42;;;;;;;6.18;73.77;99574.47;8836061;33;21082;-73
2020/12/10 13:03:31;;;;;;;44.03;17.83;;;;;;;6.35;72.98;99577.88;8835795;33;20158;-72
2020/12/10 13:08:34;;;;;;;45.40;18.13;;;;;;;6.31;72.67;99566.63;8835096;32;20559;-75
2020/12/10 13:13:37;;;;;;;42.40;16.88;;;;;;;6.34;72.76;99566.41;8834142;32;20184;-74
2020/12/10 13:18:39;;;;;;;37.85;14.82;;;;;;;6.34;72.18;99563.75;8834504;32;20201;-74
2020/12/10 13:23:42;;;;;;;43.67;16.17;;;;;;;6.41;72.35;99562.41;8834378;32;20192;-74
2020/12/10 13:28:45;;;;;;;41.95;17.13;;;;;;;6.39;71.94;99560.81;8834203;32;20584;-74
2020/12/10 13:33:56;;;;;;;42.85;15.90;;;;;;;6.36;71.88;99563.66;8834269;32;20178;-74
2020/12/10 13:38:59;;;;;;;39.28;15.63;;;;;;;6.34;71.92;99573.53;8833852;32;20188;-73
2020/12/10 13:44:02;;;;;;;41.95;17.52;;;;;;;6.34;72.46;99563.75;8833601;32;20468;-74
2020/12/10 13:49:04;;;;;;;47.17;17.30;;;;;;;6.30;72.58;99564.88;8833738;32;20143;-74
2020/12/10 13:54:07;;;;;;;42.17;16.05;;;;;;;6.18;72.51;99571.81;8832932;32;20253;-73
2020/12/10 13:59:09;;;;;;;44.03;17.40;;;;;;;6.09;72.70;99572.38;8833241;32;20197;-74
2020/12/10 14:04:13;;;;;;;42.78;17.17;;;;;;;6.07;72.99;99576.06;8834027;32;21261;-74
2020/12/10 14:09:16;;;;;;;44.22;17.27;;;;;;;6.10;73.38;99571.44;8834032;32;21504;-74
2020/12/10 14:14:18;;;;;;;43.40;16.88;;;;;;;6.08;73.37;99567.16;8832979;32;20618;-74
2020/12/10 14:19:21;;;;;;;42.13;17.02;;;;;;;5.97;73.70;99570.47;8831979;32;20444;-74
2020/12/10 14:24:24;;;;;;;41.95;18.77;;;;;;;5.83;73.81;99565.97;8833357;32;20614;-74
2020/12/10 14:29:28;;;;;;;39.20;17.05;;;;;;;5.70;74.19;99567.66;8833617;32;20182;-74
2020/12/10 14:34:30;;;;;;;36.60;16.00;;;;;;;5.65;74.69;99561.75;8812723;32;20786;-74
2020/12/10 14:39:33;;;;;;;43.42;17.55;;;;;;;5.67;74.85;99562.53;8774885;33;20186;-74
2020/12/10 14:44:39;;;;;;;35.92;15.88;;;;;;;5.65;74.74;99569.72;8776032;33;20205;-74
2020/12/10 14:49:41;;;;;;;44.20;18.23;;;;;;;5.61;75.01;99566.41;8774948;33;20182;-74
2020/12/10 14:54:45;;;;;;;39.38;16.63;;;;;;;5.58;75.17;99566.59;8749222;33;20220;-72
2020/12/10 14:59:47;;;;;;;37.38;16.33;;;;;;;5.58;75.10;99562.13;8773031;33;20213;-74
2020/12/10 15:04:49;;;;;;;39.47;17.42;;;;;;;5.56;75.12;99563.16;8773121;33;20709;-74
2020/12/10 15:09:52;;;;;;;46.95;17.83;;;;;;;5.53;75.31;99560.72;8778042;33;20197;-74
2020/12/10 15:14:55;;;;;;;42.80;17.13;;;;;;;5.52;75.46;99556.34;8777986;33;20496;-74
2020/12/10 15:19:57;;;;;;;43.60;16.77;;;;;;;5.52;75.67;99572.25;8777625;33;20194;-74
2020/12/10 15:25:00;;;;;;;42.92;16.83;;;;;;;5.50;75.86;99574.13;8777607;33;20695;-73
2020/12/10 15:30:03;;;;;;;47.72;17.20;;;;;;;5.45;76.06;99569.09;8777544;33;20636;-74
2020/12/10 15:35:06;;;;;;;48.47;19.30;;;;;;;5.43;76.29;99567.47;8778125;33;20434;-75
2020/12/10 15:40:09;;;;;;;43.42;17.98;;;;;;;5.44;76.23;99574.50;8778123;33;20251;-74
2020/12/10 15:45:11;;;;;;;43.72;17.98;;;;;;;5.43;76.13;99578.06;8777330;33;20191;-75
2020/12/10 15:50:14;;;;;;;38.33;16.50;;;;;;;5.44;76.23;99567.41;8776898;33;20251;-75
2020/12/10 15:55:17;;;;;;;43.65;17.80;;;;;;;5.44;76.01;99566.56;8777246;33;20197;-74
2020/12/10 16:00:19;;;;;;;45.42;19.13;;;;;;;5.42;76.25;99569.28;8777147;33;20238;-74
2020/12/10 16:05:22;;;;;;;70.05;27.15;;;;;;;5.41;76.21;99561.44;8777716;33;20289;-74
2020/12/10 16:10:25;;;;;;;52.65;23.50;;;;;;;5.40;76.45;99562.38;8752460;33;20185;-74
2020/12/10 16:15:28;;;;;;;49.15;21.92;;;;;;;5.39;76.61;99547.44;8752372;33;20782;-74
2020/12/10 16:20:30;;;;;;;67.75;27.48;;;;;;;5.37;76.54;99547.50;8776478;33;20203;-73
2020/12/10 16:25:33;;;;;;;52.75;23.65;;;;;;;5.37;76.68;99546.66;8787219;32;20190;-74
2020/12/10 16:30:35;;;;;;;43.20;18.70;;;;;;;5.38;76.64;99546.56;8849574;32;20190;-74
2020/12/10 16:35:38;;;;;;;43.08;18.88;;;;;;;5.38;76.60;99548.38;8862010;32;20319;-73
2020/12/10 16:40:41;;;;;;;49.13;20.20;;;;;;;5.39;76.55;99545.63;8844916;32;20262;-74
2020/12/10 16:45:44;;;;;;;40.70;16.73;;;;;;;5.40;76.44;99539.38;8835657;33;20484;-74
2020/12/10 16:50:46;;;;;;;40.53;16.30;;;;;;;5.40;76.56;99541.16;8835831;33;20259;-74
2020/12/10 16:55:49;;;;;;;36.15;16.13;;;;;;;5.40;76.49;99541.16;8835353;33;20188;-74
2020/12/10 17:00:53;;;;;;;36.53;16.33;;;;;;;5.42;76.63;99542.78;8809696;33;20235;-73
2020/12/10 17:05:55;;;;;;;39.25;17.83;;;;;;;5.39;76.74;99540.31;8867094;32;20181;-74
2020/12/10 17:10:58;;;;;;;35.25;17.23;;;;;;;5.37;76.72;99544.84;8895556;32;20196;-73
2020/12/10 17:16:01;;;;;;;37.83;16.92;;;;;;;5.34;76.71;99548.53;8895691;32;20506;-73
2020/12/10 17:21:03;;;;;;;34.60;14.98;;;;;;;5.34;77.01;99545.88;8895108;32;20670;-75
2020/12/10 17:26:06;;;;;;;32.90;16.20;;;;;;;5.36;77.02;99551.09;8895619;32;20217;-75
2020/12/10 17:31:08;;;;;;;32.50;14.02;;;;;;;5.36;77.14;99545.81;8892379;32;21431;-73
2020/12/10 17:36:11;;;;;;;34.58;14.88;;;;;;;5.34;77.29;99543.22;8892527;32;20233;-72
2020/12/10 17:41:14;;;;;;;27.42;14.10;;;;;;;5.37;77.20;99550.16;8894299;32;20181;-73
2020/12/10 17:46:16;;;;;;;48.60;20.00;;;;;;;5.37;77.08;99552.81;8894417;32;20789;-73
2020/12/10 17:51:19;;;;;;;48.22;23.10;;;;;;;5.37;77.11;99546.66;8894386;32;22588;-73
2020/12/10 17:56:23;;;;;;;41.40;18.25;;;;;;;5.38;77.21;99549.22;8895593;32;20547;-74
2020/12/10 18:01:25;;;;;;;38.92;17.13;;;;;;;5.40;77.29;99541.16;8895452;32;20164;-74
2020/12/10 18:06:27;;;;;;;40.45;17.38;;;;;;;5.38;77.28;99540.44;8894910;32;20170;-73
2020/12/10 18:11:32;;;;;;;38.10;17.83;;;;;;;5.38;77.27;99537.78;8894248;32;20231;-73
2020/12/10 18:16:39;;;;;;;42.42;18.05;;;;;;;5.38;76.99;99540.44;8894005;32;20181;-73
2020/12/10 18:21:41;;;;;;;42.15;18.67;;;;;;;5.37;77.13;99533.41;8893713;32;20788;-74
2020/12/10 18:26:45;;;;;;;47.70;19.80;;;;;;;5.35;76.95;99523.78;8874136;32;20430;-73
2020/12/10 18:31:47;;;;;;;35.38;17.13;;;;;;;5.33;76.90;99519.50;8809311;32;20597;-74
2020/12/10 18:36:50;;;;;;;56.63;22.15;;;;;;;5.32;77.08;99515.13;8773724;33;20213;-74
2020/12/10 18:41:54;;;;;;;40.25;18.73;;;;;;;5.32;76.48;99510.72;8773217;33;20193;-74
2020/12/10 18:46:56;;;;;;;48.10;20.75;;;;;;;5.32;76.26;99504.53;8832696;33;20186;-74
2020/12/10 18:52:02;;;;;;;42.30;20.50;;;;;;;5.30;76.29;99503.78;8832028;33;20181;-75
2020/12/10 18:57:05;;;;;;;40.08;18.30;;;;;;;5.27;75.96;99488.94;8806572;33;20738;-74
2020/12/10 19:02:11;;;;;;;39.42;16.05;;;;;;;5.23;76.33;99497.16;8831657;33;20695;-74
2020/12/10 19:07:14;;;;;;;45.80;17.75;;;;;;;5.16;75.75;99501.97;8827591;33;20860;-74
2020/12/10 19:12:18;;;;;;;34.33;14.77;;;;;;;5.13;75.07;99510.09;8874243;32;20769;-74
2020/12/10 19:17:20;;;;;;;33.03;14.45;;;;;;;5.08;74.82;99506.84;8891813;32;20214;-74
2020/12/10 19:22:22;;;;;;;25.40;12.63;;;;;;;5.08;74.76;99498.91;8866532;32;20234;-74
2020/12/10 19:27:25;;;;;;;29.35;12.68;;;;;;;5.04;74.26;99511.44;8891716;32;21996;-73
2020/12/10 19:32:28;;;;;;;27.40;10.93;;;;;;;5.00;74.50;99499.34;8890366;32;20743;-73
2020/12/10 19:37:31;;;;;;;27.55;11.27;;;;;;;4.98;74.29;99500.38;8892117;32;20250;-73
2020/12/10 19:42:35;;;;;;;24.58;10.98;;;;;;;4.92;74.27;99509.53;8891124;32;20218;-73
2020/12/10 19:47:37;;;;;;;25.55;10.55;;;;;;;4.76;74.36;99498.97;8891520;32;20185;-74
2020/12/10 19:52:40;;;;;;;20.55;9.18;;;;;;;4.69;74.43;99500.25;8893146;32;20460;-73
2020/12/10 19:57:43;;;;;;;22.20;9.20;;;;;;;4.66;74.74;99508.34;8896995;32;20281;-73
2020/12/10 20:02:45;;;;;;;21.30;9.70;;;;;;;4.75;74.34;99501.72;8896233;32;20187;-74
2020/12/10 20:07:47;;;;;;;23.05;10.15;;;;;;;4.70;74.45;99495.81;8895392;32;20181;-73
2020/12/10 20:12:52;;;;;;;27.77;12.00;;;;;;;4.73;74.52;99495.63;8898332;32;20189;-74
2020/12/10 20:17:54;;;;;;;25.70;12.02;;;;;;;4.73;74.39;99493.84;8900322;32;20189;-74
2020/12/10 20:22:59;;;;;;;20.07;9.87;;;;;;;4.68;74.77;99475.56;8900157;32;20327;-76
2020/12/10 20:28:03;;;;;;;24.20;11.98;;;;;;;4.76;74.46;99474.28;8871145;32;21072;-75
2020/12/10 20:33:05;;;;;;;28.80;11.33;;;;;;;4.71;74.21;99471.91;8896643;32;20152;-74
2020/12/10 20:38:07;;;;;;;23.93;11.00;;;;;;;4.68;74.50;99478.22;8871011;32;20185;-74
2020/12/10 20:43:10;;;;;;;25.87;11.33;;;;;;;4.64;74.35;99481.16;8896177;32;20138;-76
2020/12/10 20:48:13;;;;;;;23.42;10.75;;;;;;;4.65;74.40;99477.56;8896140;32;20516;-75
2020/12/10 20:53:17;;;;;;;35.90;12.43;;;;;;;4.51;74.32;99480.13;8895212;32;20146;-74
2020/12/10 20:58:20;;;;;;;27.27;12.82;;;;;;;4.46;74.46;99473.28;8895742;32;20740;-73
2020/12/10 21:03:23;;;;;;;26.30;11.57;;;;;;;4.47;74.08;99476.81;8861750;32;20143;-75
2020/12/10 21:08:26;;;;;;;24.67;10.77;;;;;;;4.36;73.93;99476.53;8833512;33;20454;-75
2020/12/10 21:13:29;;;;;;;28.17;11.55;;;;;;;4.26;74.21;99470.06;8834373;33;20645;-74
2020/12/10 21:18:31;;;;;;;24.27;10.73;;;;;;;4.13;74.77;99473.38;8835033;33;20234;-75
2020/12/10 21:23:34;;;;;;;27.47;11.57;;;;;;;4.15;74.95;99473.31;8833669;33;20177;-75
2020/12/10 21:28:37;;;;;;;28.47;11.73;;;;;;;4.14;75.05;99466.28;8833635;33;20186;-76
2020/12/10 21:33:42;;;;;;;23.40;10.63;;;;;;;4.14;75.00;99463.66;8833692;33;20166;-75
2020/12/10 21:38:44;;;;;;;25.90;11.10;;;;;;;4.07;75.21;99457.84;8837886;32;20181;-75
2020/12/10 21:43:47;;;;;;;31.50;11.93;;;;;;;4.03;75.59;99458.94;8846599;33;20678;-75
2020/12/10 21:48:50;;;;;;;28.33;11.57;;;;;;;4.03;76.23;99450.16;8834465;33;20450;-75
2020/12/10 21:53:52;;;;;;;29.73;11.55;;;;;;;4.07;75.63;99446.44;8826620;32;20289;-75
2020/12/10 21:58:56;;;;;;;31.70;12.23;;;;;;;4.06;75.56;99439.44;8891209;32;21577;-75
2020/12/10 22:03:58;;;;;;;27.50;12.07;;;;;;;4.03;75.45;99437.81;8893368;32;20185;-74
2020/12/10 22:09:00;;;;;;;26.67;13.00;;;;;;;3.99;75.60;99447.69;8891863;32;20193;-74
2020/12/10 22:14:05;;;;;;;28.87;12.60;;;;;;;3.90;75.90;99429.72;8893497;32;20245;-75
2020/12/10 22:19:07;;;;;;;29.13;12.52;;;;;;;3.91;75.95;99420.00;8894202;32;20234;-75
2020/12/10 22:24:12;;;;;;;27.87;12.60;;;;;;;3.93;76.09;99426.91;8893533;32;20456;-75
2020/12/10 22:29:15;;;;;;;29.80;12.60;;;;;;;3.82;75.87;99409.94;8893467;32;20246;-75
2020/12/10 22:34:18;;;;;;;27.17;11.87;;;;;;;3.77;76.12;99404.91;8893537;32;20463;-74
2020/12/10 22:39:20;;;;;;;30.40;12.57;;;;;;;3.68;76.06;99397.47;8891958;32;20226;-76
2020/12/10 22:44:23;;;;;;;28.27;11.97;;;;;;;3.64;76.28;99391.50;8892910;32;20241;-74
2020/12/10 22:49:26;;;;;;;29.33;12.87;;;;;;;3.65;76.28;99390.56;8892345;32;20185;-76
2020/12/10 22:54:29;;;;;;;32.13;12.10;;;;;;;3.63;76.23;99388.94;8892528;32;20874;-75
2020/12/10 22:59:32;;;;;;;30.10;11.77;;;;;;;3.59;76.22;99392.66;8866719;32;20238;-74
2020/12/10 23:04:36;;;;;;;29.73;12.03;;;;;;;3.54;75.86;99396.44;8892584;32;20210;-74
2020/12/10 23:09:38;;;;;;;26.53;12.70;;;;;;;3.60;75.35;99391.75;8855126;32;20240;-74
2020/12/10 23:14:42;;;;;;;29.00;13.57;;;;;;;3.56;75.52;99389.28;8858959;32;20548;-74
2020/12/10 23:19:44;;;;;;;30.10;14.27;;;;;;;3.52;75.48;99385.09;8863656;32;20973;-75
2020/12/10 23:24:46;;;;;;;29.83;13.47;;;;;;;3.46;75.69;99379.28;8862237;32;20659;-74
2020/12/10 23:29:49;;;;;;;33.10;14.93;;;;;;;3.40;76.09;99372.56;8864295;32;20235;-74
2020/12/10 23:34:52;;;;;;;28.93;13.67;;;;;;;3.32;76.15;99364.19;8871350;32;20273;-75
2020/12/10 23:39:54;;;;;;;30.70;12.77;;;;;;;3.24;76.81;99356.69;8862468;32;20178;-74